createdAt,value
2022-12-14T00:00:33.280Z,186.35
2022-12-14T00:01:33.232Z,186.35
2022-12-14T00:02:33.276Z,72
2022-12-14T00:03:33.277Z,87.53
2022-12-14T00:04:33.239Z,81.88
2022-12-14T00:05:33.233Z,81.88
2022-12-14T00:06:33.239Z,81.88
2022-12-14T00:07:33.235Z,81.88
2022-12-14T00:08:36.801Z,81.88
2022-12-14T00:09:33.231Z,81.88
2022-12-14T00:10:33.241Z,81.88
2022-12-14T00:11:33.238Z,81.88
2022-12-14T00:12:33.236Z,81.88
2022-12-14T00:13:33.238Z,81.88
2022-12-14T00:14:33.236Z,81.88
2022-12-14T00:15:33.272Z,81.88
2022-12-14T00:16:33.353Z,81.88
2022-12-14T00:17:33.237Z,81.88
2022-12-14T00:18:33.230Z,81.88
2022-12-14T00:19:33.235Z,81.88
2022-12-14T00:20:33.246Z,81.88
2022-12-14T00:21:33.238Z,81.88
2022-12-14T00:22:33.232Z,81.88
2022-12-14T00:23:38.639Z,81.88
2022-12-14T00:24:33.235Z,81.88
2022-12-14T00:25:33.240Z,81.88
2022-12-14T00:26:33.242Z,81.88
2022-12-14T00:27:33.258Z,81.88
2022-12-14T00:28:33.229Z,81.88
2022-12-14T00:29:33.236Z,81.88
2022-12-14T00:30:33.243Z,81.88
2022-12-14T00:31:33.320Z,81.88
2022-12-14T00:32:33.259Z,81.88
2022-12-14T00:33:33.246Z,81.88
2022-12-14T00:34:33.245Z,81.88
2022-12-14T00:35:33.248Z,81.88
2022-12-14T00:36:33.254Z,81.88
2022-12-14T00:37:33.257Z,81.88
2022-12-14T00:38:33.253Z,81.88
2022-12-14T00:39:33.257Z,81.88
2022-12-14T00:40:33.250Z,81.88
2022-12-14T00:41:33.261Z,81.88
2022-12-14T00:42:33.262Z,81.88
2022-12-14T00:43:33.251Z,81.88
2022-12-14T00:44:33.254Z,81.88
2022-12-14T00:45:33.276Z,81.88
2022-12-14T00:46:33.311Z,81.88
2022-12-14T00:47:37.562Z,81.88
2022-12-14T00:48:33.348Z,81.88
2022-12-14T00:49:33.277Z,81.88
2022-12-14T00:50:33.271Z,81.88
2022-12-14T00:51:33.274Z,81.88
2022-12-14T00:52:33.272Z,81.88
2022-12-14T00:53:33.286Z,81.88
2022-12-14T00:54:33.284Z,81.88
2022-12-14T00:55:33.275Z,81.88
2022-12-14T00:56:33.284Z,81.88
2022-12-14T00:57:33.283Z,81.88
2022-12-14T00:58:33.282Z,81.88
2022-12-14T00:59:33.281Z,81.88
2022-12-14T01:00:33.283Z,81.88
2022-12-14T01:01:33.369Z,81.88
2022-12-14T01:02:33.479Z,81.88
2022-12-14T01:03:33.616Z,81.88
2022-12-14T01:04:33.315Z,81.88
2022-12-14T01:05:33.288Z,81.88
2022-12-14T01:06:33.295Z,81.88
2022-12-14T01:07:33.299Z,81.88
2022-12-14T01:08:33.302Z,81.88
2022-12-14T01:09:33.298Z,81.88
2022-12-14T01:10:33.295Z,81.88
2022-12-14T01:11:33.302Z,81.88
2022-12-14T01:12:33.301Z,81.88
2022-12-14T01:13:33.304Z,81.88
2022-12-14T01:14:33.308Z,81.88
2022-12-14T01:15:33.308Z,81.88
2022-12-14T01:16:33.304Z,81.88
2022-12-14T01:17:33.320Z,81.88
2022-12-14T01:18:33.312Z,81.88
2022-12-14T01:19:33.312Z,81.88
2022-12-14T01:20:33.350Z,81.88
2022-12-14T01:21:33.332Z,81.88
2022-12-14T01:22:33.325Z,81.88
2022-12-14T01:23:33.326Z,81.88
2022-12-14T01:24:33.318Z,81.88
2022-12-14T01:25:33.316Z,81.88
2022-12-14T01:26:33.338Z,81.88
2022-12-14T01:27:33.329Z,81.88
2022-12-14T01:28:33.337Z,81.88
2022-12-14T01:29:33.323Z,81.88
2022-12-14T01:30:33.326Z,81.88
2022-12-14T01:31:33.358Z,81.88
2022-12-14T01:32:33.323Z,81.88
2022-12-14T01:33:33.325Z,81.88
2022-12-14T01:34:33.336Z,81.88
2022-12-14T01:35:33.332Z,81.88
2022-12-14T01:36:33.358Z,81.88
2022-12-14T01:37:33.329Z,81.88
2022-12-14T01:38:33.344Z,81.88
2022-12-14T01:39:33.341Z,81.88
2022-12-14T01:40:33.335Z,81.88
2022-12-14T01:41:33.333Z,81.88
2022-12-14T01:42:33.330Z,81.88
2022-12-14T01:43:33.330Z,81.88
2022-12-14T01:44:33.340Z,81.88
2022-12-14T01:45:33.332Z,81.88
2022-12-14T01:46:33.366Z,81.88
2022-12-14T01:47:33.330Z,81.88
2022-12-14T01:48:33.340Z,81.88
2022-12-14T01:49:33.340Z,81.88
2022-12-14T01:50:33.376Z,81.88
2022-12-14T01:51:33.356Z,83.29
2022-12-14T01:52:33.369Z,93.18
2022-12-14T01:53:33.357Z,84.71
2022-12-14T01:54:33.350Z,84.71
2022-12-14T01:55:33.352Z,84.71
2022-12-14T01:56:33.357Z,84.71
2022-12-14T01:57:33.348Z,84.71
2022-12-14T01:58:33.351Z,84.71
2022-12-14T01:59:33.360Z,84.71
2022-12-14T02:00:33.364Z,84.71
2022-12-14T02:01:33.460Z,84.71
2022-12-14T02:02:33.445Z,84.71
2022-12-14T02:03:33.641Z,84.71
2022-12-14T02:04:33.371Z,84.71
2022-12-14T02:05:33.372Z,84.71
2022-12-14T02:06:33.373Z,84.71
2022-12-14T02:07:33.373Z,84.71
2022-12-14T02:08:33.399Z,84.71
2022-12-14T02:09:33.382Z,84.71
2022-12-14T02:10:33.381Z,84.71
2022-12-14T02:11:33.391Z,84.71
2022-12-14T02:12:33.381Z,84.71
2022-12-14T02:13:33.377Z,62.12
2022-12-14T02:14:33.384Z,87.53
2022-12-14T02:15:33.379Z,80.47
2022-12-14T02:16:33.424Z,39.53
2022-12-14T02:17:33.391Z,73.41
2022-12-14T02:18:33.393Z,36.71
2022-12-14T02:19:33.390Z,36.71
2022-12-14T02:20:33.390Z,36.71
2022-12-14T02:21:33.396Z,36.71
2022-12-14T02:22:33.401Z,36.71
2022-12-14T02:23:33.394Z,36.71
2022-12-14T02:24:33.424Z,36.71
2022-12-14T02:25:33.400Z,36.71
2022-12-14T02:26:33.394Z,36.71
2022-12-14T02:27:33.405Z,36.71
2022-12-14T02:28:33.406Z,36.71
2022-12-14T02:29:33.412Z,347.29
2022-12-14T02:30:33.412Z,340.24
2022-12-14T02:31:33.465Z,340.24
2022-12-14T02:32:33.411Z,340.24
2022-12-14T02:33:33.409Z,340.24
2022-12-14T02:34:33.405Z,344.47
2022-12-14T02:35:33.412Z,348.71
2022-12-14T02:36:33.415Z,351.53
2022-12-14T02:37:33.412Z,347.29
2022-12-14T02:38:33.410Z,347.29
2022-12-14T02:39:33.421Z,347.29
2022-12-14T02:40:33.456Z,347.29
2022-12-14T02:41:33.414Z,347.29
2022-12-14T02:42:33.415Z,347.29
2022-12-14T02:43:33.415Z,347.29
2022-12-14T02:44:33.420Z,347.29
2022-12-14T02:45:33.442Z,347.29
2022-12-14T02:46:33.490Z,347.29
2022-12-14T02:47:33.432Z,347.29
2022-12-14T02:48:33.433Z,347.29
2022-12-14T02:49:33.422Z,347.29
2022-12-14T02:50:33.436Z,347.29
2022-12-14T02:51:33.438Z,347.29
2022-12-14T02:52:33.431Z,347.29
2022-12-14T02:53:33.429Z,347.29
2022-12-14T02:54:33.434Z,347.29
2022-12-14T02:55:33.434Z,347.29
2022-12-14T02:56:33.464Z,347.29
2022-12-14T02:57:33.443Z,347.29
2022-12-14T02:58:33.439Z,347.29
2022-12-14T02:59:33.441Z,347.29
2022-12-14T03:00:33.520Z,347.29
2022-12-14T03:01:33.579Z,347.29
2022-12-14T03:02:33.512Z,347.29
2022-12-14T03:03:33.433Z,347.29
2022-12-14T03:04:33.447Z,347.29
2022-12-14T03:05:33.445Z,347.29
2022-12-14T03:06:33.456Z,347.29
2022-12-14T03:07:33.452Z,347.29
2022-12-14T03:08:33.444Z,347.29
2022-12-14T03:09:33.452Z,347.29
2022-12-14T03:10:33.454Z,347.29
2022-12-14T03:11:33.454Z,347.29
2022-12-14T03:12:33.467Z,347.29
2022-12-14T03:13:33.451Z,347.29
2022-12-14T03:14:33.459Z,347.29
2022-12-14T03:15:33.456Z,347.29
2022-12-14T03:16:33.543Z,347.29
2022-12-14T03:17:33.453Z,347.29
2022-12-14T03:18:33.459Z,347.29
2022-12-14T03:19:33.470Z,347.29
2022-12-14T03:20:33.453Z,347.29
2022-12-14T03:21:33.465Z,347.29
2022-12-14T03:22:33.466Z,347.29
2022-12-14T03:23:33.462Z,347.29
2022-12-14T03:24:33.464Z,347.29
2022-12-14T03:25:33.465Z,347.29
2022-12-14T03:26:33.463Z,347.29
2022-12-14T03:27:33.465Z,347.29
2022-12-14T03:28:33.490Z,347.29
2022-12-14T03:29:33.473Z,347.29
2022-12-14T03:30:58.642Z,347.29
2022-12-14T03:31:33.523Z,347.29
2022-12-14T03:32:33.477Z,347.29
2022-12-14T03:33:33.488Z,347.29
2022-12-14T03:34:33.479Z,347.29
2022-12-14T03:35:33.477Z,347.29
2022-12-14T03:36:33.478Z,347.29
2022-12-14T03:37:33.478Z,347.29
2022-12-14T03:38:33.478Z,347.29
2022-12-14T03:39:33.482Z,347.29
2022-12-14T03:40:33.496Z,347.29
2022-12-14T03:41:33.488Z,347.29
2022-12-14T03:42:33.484Z,347.29
2022-12-14T03:43:33.485Z,347.29
2022-12-14T03:44:33.516Z,347.29
2022-12-14T03:45:33.538Z,347.29
2022-12-14T03:46:33.483Z,347.29
2022-12-14T03:47:33.485Z,347.29
2022-12-14T03:48:33.491Z,347.29
2022-12-14T03:49:33.489Z,347.29
2022-12-14T03:50:33.486Z,347.29
2022-12-14T03:51:33.489Z,347.29
2022-12-14T03:52:33.483Z,347.29
2022-12-14T03:53:33.477Z,347.29
2022-12-14T03:54:33.485Z,347.29
2022-12-14T03:55:33.492Z,347.29
2022-12-14T03:56:33.496Z,347.29
2022-12-14T03:57:33.488Z,347.29
2022-12-14T03:58:33.485Z,347.29
2022-12-14T03:59:33.487Z,347.29
2022-12-14T04:00:33.527Z,347.29
2022-12-14T04:01:33.616Z,347.29
2022-12-14T04:02:36.222Z,347.29
2022-12-14T04:03:33.500Z,347.29
2022-12-14T04:04:33.493Z,347.29
2022-12-14T04:05:33.501Z,347.29
2022-12-14T04:06:33.492Z,347.29
2022-12-14T04:07:33.502Z,347.29
2022-12-14T04:08:33.494Z,347.29
2022-12-14T04:09:33.495Z,347.29
2022-12-14T04:10:33.500Z,347.29
2022-12-14T04:11:33.500Z,347.29
2022-12-14T04:12:33.500Z,347.29
2022-12-14T04:13:33.495Z,347.29
2022-12-14T04:14:33.509Z,347.29
2022-12-14T04:15:33.509Z,347.29
2022-12-14T04:16:33.577Z,347.29
2022-12-14T04:17:33.506Z,347.29
2022-12-14T04:18:33.507Z,347.29
2022-12-14T04:19:33.508Z,347.29
2022-12-14T04:20:33.510Z,347.29
2022-12-14T04:21:33.506Z,347.29
2022-12-14T04:22:33.505Z,347.29
2022-12-14T04:23:33.507Z,347.29
2022-12-14T04:24:33.511Z,347.29
2022-12-14T04:25:33.514Z,347.29
2022-12-14T04:26:33.502Z,347.29
2022-12-14T04:27:33.500Z,347.29
2022-12-14T04:28:33.519Z,347.29
2022-12-14T04:29:33.511Z,347.29
2022-12-14T04:30:33.508Z,347.29
2022-12-14T04:31:33.546Z,347.29
2022-12-14T04:32:33.572Z,347.29
2022-12-14T04:33:33.506Z,347.29
2022-12-14T04:34:33.515Z,347.29
2022-12-14T04:35:33.513Z,347.29
2022-12-14T04:36:33.520Z,347.29
2022-12-14T04:37:33.513Z,347.29
2022-12-14T04:38:33.512Z,347.29
2022-12-14T04:39:33.518Z,347.29
2022-12-14T04:40:33.513Z,347.29
2022-12-14T04:41:33.518Z,347.29
2022-12-14T04:42:33.519Z,347.29
2022-12-14T04:43:33.523Z,347.29
2022-12-14T04:44:33.522Z,347.29
2022-12-14T04:45:33.577Z,347.29
2022-12-14T04:46:37.546Z,347.29
2022-12-14T04:47:33.520Z,347.29
2022-12-14T04:48:33.544Z,347.29
2022-12-14T04:49:33.518Z,347.29
2022-12-14T04:50:33.515Z,347.29
2022-12-14T04:51:33.517Z,347.29
2022-12-14T04:52:33.520Z,347.29
2022-12-14T04:53:33.525Z,347.29
2022-12-14T04:54:33.527Z,347.29
2022-12-14T04:55:33.525Z,347.29
2022-12-14T04:56:33.525Z,347.29
2022-12-14T04:57:33.519Z,347.29
2022-12-14T04:58:33.520Z,347.29
2022-12-14T04:59:33.523Z,347.29
2022-12-14T05:00:33.526Z,347.29
2022-12-14T05:01:33.646Z,347.29
2022-12-14T05:02:33.624Z,347.29
2022-12-14T05:03:33.532Z,347.29
2022-12-14T05:04:33.560Z,347.29
2022-12-14T05:05:33.528Z,347.29
2022-12-14T05:06:33.523Z,347.29
2022-12-14T05:07:33.522Z,347.29
2022-12-14T05:08:33.522Z,347.29
2022-12-14T05:09:33.536Z,347.29
2022-12-14T05:10:33.520Z,347.29
2022-12-14T05:11:52.921Z,347.29
2022-12-14T05:12:33.543Z,347.29
2022-12-14T05:13:33.526Z,347.29
2022-12-14T05:14:33.528Z,347.29
2022-12-14T05:15:33.549Z,347.29
2022-12-14T05:16:33.599Z,347.29
2022-12-14T05:17:33.525Z,347.29
2022-12-14T05:18:33.527Z,347.29
2022-12-14T05:19:33.531Z,347.29
2022-12-14T05:20:33.567Z,347.29
2022-12-14T05:21:33.536Z,347.29
2022-12-14T05:22:33.540Z,347.29
2022-12-14T05:23:33.531Z,347.29
2022-12-14T05:24:33.538Z,347.29
2022-12-14T05:25:33.536Z,347.29
2022-12-14T05:26:33.548Z,347.29
2022-12-14T05:27:33.539Z,347.29
2022-12-14T05:28:33.548Z,347.29
2022-12-14T05:29:33.534Z,347.29
2022-12-14T05:30:33.589Z,347.29
2022-12-14T05:31:33.544Z,347.29
2022-12-14T05:32:33.551Z,347.29
2022-12-14T05:33:33.538Z,347.29
2022-12-14T05:34:33.546Z,347.29
2022-12-14T05:35:33.539Z,347.29
2022-12-14T05:36:33.569Z,347.29
2022-12-14T05:37:33.534Z,347.29
2022-12-14T05:38:33.550Z,347.29
2022-12-14T05:39:33.549Z,347.29
2022-12-14T05:40:33.558Z,347.29
2022-12-14T05:41:33.556Z,347.29
2022-12-14T05:42:33.560Z,347.29
2022-12-14T05:43:33.549Z,347.29
2022-12-14T05:44:33.552Z,347.29
2022-12-14T05:45:33.546Z,347.29
2022-12-14T05:46:33.540Z,347.29
2022-12-14T05:47:33.555Z,347.29
2022-12-14T05:48:33.550Z,347.29
2022-12-14T05:49:33.559Z,347.29
2022-12-14T05:50:33.567Z,347.29
2022-12-14T05:51:33.551Z,347.29
2022-12-14T05:52:33.585Z,347.29
2022-12-14T05:53:33.554Z,347.29
2022-12-14T05:54:33.557Z,347.29
2022-12-14T05:55:33.552Z,347.29
2022-12-14T05:56:33.562Z,347.29
2022-12-14T05:57:33.551Z,347.29
2022-12-14T05:58:33.562Z,347.29
2022-12-14T05:59:33.560Z,347.29
2022-12-14T06:00:33.571Z,347.29
2022-12-14T06:01:33.652Z,347.29
2022-12-14T06:02:33.603Z,347.29
2022-12-14T06:03:33.556Z,347.29
2022-12-14T06:04:33.581Z,347.29
2022-12-14T06:05:33.567Z,347.29
2022-12-14T06:06:33.565Z,347.29
2022-12-14T06:07:33.561Z,347.29
2022-12-14T06:08:33.647Z,347.29
2022-12-14T06:09:33.568Z,347.29
2022-12-14T06:10:33.569Z,347.29
2022-12-14T06:11:33.573Z,347.29
2022-12-14T06:12:33.568Z,347.29
2022-12-14T06:13:33.570Z,347.29
2022-12-14T06:14:33.574Z,347.29
2022-12-14T06:15:34.160Z,347.29
2022-12-14T06:16:33.582Z,347.29
2022-12-14T06:17:33.578Z,347.29
2022-12-14T06:18:33.572Z,347.29
2022-12-14T06:19:33.568Z,347.29
2022-12-14T06:20:33.576Z,347.29
2022-12-14T06:21:33.580Z,347.29
2022-12-14T06:22:33.576Z,347.29
2022-12-14T06:23:33.570Z,347.29
2022-12-14T06:24:33.606Z,347.29
2022-12-14T06:25:33.577Z,347.29
2022-12-14T06:26:33.584Z,347.29
2022-12-14T06:27:33.583Z,347.29
2022-12-14T06:28:33.575Z,347.29
2022-12-14T06:29:33.577Z,347.29
2022-12-14T06:30:33.575Z,347.29
2022-12-14T06:31:33.636Z,347.29
2022-12-14T06:32:33.584Z,347.29
2022-12-14T06:33:33.585Z,347.29
2022-12-14T06:34:38.183Z,347.29
2022-12-14T06:35:33.589Z,347.29
2022-12-14T06:36:33.582Z,347.29
2022-12-14T06:37:33.609Z,347.29
2022-12-14T06:38:33.587Z,347.29
2022-12-14T06:39:33.586Z,347.29
2022-12-14T06:40:33.625Z,347.29
2022-12-14T06:41:33.585Z,347.29
2022-12-14T06:42:33.594Z,347.29
2022-12-14T06:43:33.584Z,347.29
2022-12-14T06:44:33.581Z,347.29
2022-12-14T06:45:33.604Z,347.29
2022-12-14T06:46:33.654Z,347.29
2022-12-14T06:47:33.590Z,347.29
2022-12-14T06:48:33.601Z,347.29
2022-12-14T06:49:33.682Z,347.29
2022-12-14T06:50:33.591Z,347.29
2022-12-14T06:51:33.589Z,347.29
2022-12-14T06:52:33.593Z,347.29
2022-12-14T06:53:33.599Z,347.29
2022-12-14T06:54:33.596Z,347.29
2022-12-14T06:55:33.595Z,347.29
2022-12-14T06:56:33.617Z,347.29
2022-12-14T06:57:33.597Z,347.29
2022-12-14T06:58:33.600Z,347.29
2022-12-14T06:59:33.600Z,347.29
2022-12-14T07:00:33.595Z,347.29
2022-12-14T07:01:33.685Z,347.29
2022-12-14T07:02:33.767Z,347.29
2022-12-14T07:03:33.622Z,347.29
2022-12-14T07:04:33.605Z,347.29
2022-12-14T07:05:33.614Z,347.29
2022-12-14T07:06:33.610Z,347.29
2022-12-14T07:07:33.613Z,347.29
2022-12-14T07:08:33.610Z,347.29
2022-12-14T07:09:33.599Z,347.29
2022-12-14T07:10:33.599Z,347.29
2022-12-14T07:11:33.607Z,347.29
2022-12-14T07:12:33.633Z,218.82
2022-12-14T07:13:33.616Z,218.82
2022-12-14T07:14:33.606Z,218.82
2022-12-14T07:15:33.625Z,218.82
2022-12-14T07:16:33.598Z,218.82
2022-12-14T07:17:33.611Z,292.24
2022-12-14T07:18:33.603Z,285.18
2022-12-14T07:19:33.605Z,285.18
2022-12-14T07:20:33.597Z,285.18
2022-12-14T07:21:33.626Z,285.18
2022-12-14T07:22:33.615Z,285.18
2022-12-14T07:23:33.861Z,285.18
2022-12-14T07:24:33.608Z,289.41
2022-12-14T07:25:33.608Z,290.82
2022-12-14T07:26:33.605Z,292.24
2022-12-14T07:27:33.606Z,295.06
2022-12-14T07:28:33.634Z,288
2022-12-14T07:29:34.896Z,288
2022-12-14T07:30:33.607Z,295.06
2022-12-14T07:31:33.640Z,276.71
2022-12-14T07:32:33.599Z,288
2022-12-14T07:33:33.609Z,289.41
2022-12-14T07:34:33.603Z,293.65
2022-12-14T07:35:33.617Z,273.88
2022-12-14T07:36:33.599Z,273.88
2022-12-14T07:37:33.605Z,273.88
2022-12-14T07:38:33.605Z,273.88
2022-12-14T07:39:33.615Z,35.29
2022-12-14T07:40:33.601Z,31.06
2022-12-14T07:41:33.600Z,31.06
2022-12-14T07:42:33.610Z,31.06
2022-12-14T07:43:33.612Z,31.06
2022-12-14T07:44:34.641Z,31.06
2022-12-14T07:45:33.604Z,31.06
2022-12-14T07:46:33.811Z,31.06
2022-12-14T07:47:33.626Z,31.06
2022-12-14T07:48:33.604Z,31.06
2022-12-14T07:49:33.610Z,31.06
2022-12-14T07:50:33.604Z,31.06
2022-12-14T07:51:33.614Z,31.06
2022-12-14T07:52:37.381Z,31.06
2022-12-14T07:53:33.614Z,31.06
2022-12-14T07:54:33.614Z,31.06
2022-12-14T07:55:33.625Z,31.06
2022-12-14T07:56:33.617Z,31.06
2022-12-14T07:57:33.628Z,31.06
2022-12-14T07:58:33.622Z,31.06
2022-12-14T07:59:33.627Z,31.06
2022-12-14T08:00:33.651Z,31.06
2022-12-14T08:01:33.718Z,31.06
2022-12-14T08:02:33.681Z,31.06
2022-12-14T08:03:33.633Z,31.06
2022-12-14T08:04:33.652Z,31.06
2022-12-14T08:05:33.630Z,31.06
2022-12-14T08:06:33.640Z,31.06
2022-12-14T08:07:33.635Z,31.06
2022-12-14T08:08:33.651Z,31.06
2022-12-14T08:09:33.636Z,31.06
2022-12-14T08:10:38.685Z,31.06
2022-12-14T08:11:33.638Z,31.06
2022-12-14T08:12:33.637Z,31.06
2022-12-14T08:13:33.635Z,31.06
2022-12-14T08:14:33.650Z,31.06
2022-12-14T08:15:33.655Z,31.06
2022-12-14T08:16:33.728Z,31.06
2022-12-14T08:17:33.646Z,31.06
2022-12-14T08:18:33.645Z,31.06
2022-12-14T08:19:33.652Z,31.06
2022-12-14T08:20:33.648Z,31.06
2022-12-14T08:21:33.657Z,31.06
2022-12-14T08:22:33.663Z,31.06
2022-12-14T08:23:34.068Z,31.06
2022-12-14T08:24:33.655Z,31.06
2022-12-14T08:25:33.660Z,31.06
2022-12-14T08:26:35.902Z,31.06
2022-12-14T08:27:33.664Z,31.06
2022-12-14T08:28:33.665Z,31.06
2022-12-14T08:29:33.672Z,31.06
2022-12-14T08:30:33.672Z,31.06
2022-12-14T08:31:33.760Z,31.06
2022-12-14T08:32:34.521Z,31.06
2022-12-14T08:33:33.666Z,31.06
2022-12-14T08:34:33.673Z,31.06
2022-12-14T08:35:33.677Z,31.06
2022-12-14T08:36:33.678Z,31.06
2022-12-14T08:37:33.676Z,31.06
2022-12-14T08:38:33.679Z,31.06
2022-12-14T08:39:33.691Z,31.06
2022-12-14T08:40:33.709Z,134.12
2022-12-14T08:41:33.683Z,138.35
2022-12-14T08:42:33.686Z,134.12
2022-12-14T08:43:33.898Z,134.12
2022-12-14T08:44:33.692Z,134.12
2022-12-14T08:45:33.705Z,134.12
2022-12-14T08:46:33.787Z,134.12
2022-12-14T08:47:33.695Z,149.65
2022-12-14T08:48:33.685Z,204.71
2022-12-14T08:49:33.691Z,186.35
2022-12-14T08:50:33.703Z,163.76
2022-12-14T08:51:33.710Z,163.76
2022-12-14T08:52:33.700Z,163.76
2022-12-14T08:53:33.941Z,163.76
2022-12-14T08:54:33.703Z,163.76
2022-12-14T08:55:38.164Z,163.76
2022-12-14T08:56:33.709Z,163.76
2022-12-14T08:57:33.704Z,163.76
2022-12-14T08:58:33.715Z,163.76
2022-12-14T08:59:59.954Z,163.76
2022-12-14T09:00:33.758Z,163.76
2022-12-14T09:01:34.724Z,163.76
2022-12-14T09:02:33.798Z,163.76
2022-12-14T09:03:33.932Z,163.76
2022-12-14T09:04:33.712Z,163.76
2022-12-14T09:05:33.714Z,163.76
2022-12-14T09:06:33.708Z,163.76
2022-12-14T09:07:33.709Z,163.76
2022-12-14T09:08:33.722Z,163.76
2022-12-14T09:09:33.720Z,163.76
2022-12-14T09:10:33.722Z,163.76
2022-12-14T09:11:33.715Z,163.76
2022-12-14T09:12:33.707Z,163.76
2022-12-14T09:13:33.975Z,163.76
2022-12-14T09:14:33.727Z,163.76
2022-12-14T09:15:33.722Z,163.76
2022-12-14T09:16:33.765Z,163.76
2022-12-14T09:17:33.725Z,312
2022-12-14T09:18:33.913Z,312
2022-12-14T09:19:33.728Z,312
2022-12-14T09:20:33.733Z,312
2022-12-14T09:21:33.771Z,312
2022-12-14T09:22:33.736Z,312
2022-12-14T09:23:34.014Z,312
2022-12-14T09:24:33.737Z,312
2022-12-14T09:25:33.726Z,312
2022-12-14T09:26:33.731Z,312
2022-12-14T09:27:33.737Z,312
2022-12-14T09:28:33.733Z,312
2022-12-14T09:29:33.737Z,312
2022-12-14T09:30:33.738Z,312
2022-12-14T09:31:33.777Z,306.35
2022-12-14T09:32:33.734Z,306.35
2022-12-14T09:33:33.967Z,224.47
2022-12-14T09:34:33.742Z,224.47
2022-12-14T09:35:33.741Z,224.47
2022-12-14T09:36:33.743Z,224.47
2022-12-14T09:37:33.749Z,224.47
2022-12-14T09:38:33.775Z,224.47
2022-12-14T09:39:33.748Z,224.47
2022-12-14T09:40:33.749Z,224.47
2022-12-14T09:41:33.762Z,224.47
2022-12-14T09:42:33.748Z,224.47
2022-12-14T09:43:36.842Z,224.47
2022-12-14T09:44:33.753Z,224.47
2022-12-14T09:45:33.810Z,224.47
2022-12-14T09:46:33.755Z,224.47
2022-12-14T09:47:33.753Z,224.47
2022-12-14T09:48:33.753Z,224.47
2022-12-14T09:49:33.765Z,224.47
2022-12-14T09:50:33.755Z,224.47
2022-12-14T09:51:33.777Z,224.47
2022-12-14T09:52:33.756Z,224.47
2022-12-14T09:53:33.766Z,224.47
2022-12-14T09:54:33.764Z,224.47
2022-12-14T09:55:33.763Z,224.47
2022-12-14T09:56:33.764Z,224.47
2022-12-14T09:57:33.762Z,224.47
2022-12-14T09:58:33.873Z,224.47
2022-12-14T09:59:33.766Z,224.47
2022-12-14T10:00:33.776Z,168
2022-12-14T10:01:33.975Z,176.47
2022-12-14T10:02:34.377Z,176.47
2022-12-14T10:03:34.249Z,176.47
2022-12-14T10:04:33.815Z,176.47
2022-12-14T10:05:33.767Z,176.47
2022-12-14T10:06:33.770Z,176.47
2022-12-14T10:07:34.806Z,176.47
2022-12-14T10:08:34.010Z,176.47
2022-12-14T10:09:33.769Z,176.47
2022-12-14T10:10:33.776Z,176.47
2022-12-14T10:11:33.775Z,176.47
2022-12-14T10:12:34.470Z,176.47
2022-12-14T10:13:34.009Z,176.47
2022-12-14T10:14:33.779Z,176.47
2022-12-14T10:15:33.782Z,176.47
2022-12-14T10:16:33.811Z,176.47
2022-12-14T10:17:33.772Z,176.47
2022-12-14T10:18:58.058Z,176.47
2022-12-14T10:19:33.787Z,176.47
2022-12-14T10:20:33.796Z,176.47
2022-12-14T10:21:33.785Z,176.47
2022-12-14T10:22:33.785Z,176.47
2022-12-14T10:23:33.792Z,176.47
2022-12-14T10:24:33.784Z,176.47
2022-12-14T10:25:33.786Z,176.47
2022-12-14T10:26:33.786Z,176.47
2022-12-14T10:27:47.924Z,176.47
2022-12-14T10:28:33.785Z,176.47
2022-12-14T10:29:33.786Z,176.47
2022-12-14T10:30:33.789Z,176.47
2022-12-14T10:31:33.832Z,176.47
2022-12-14T10:32:33.782Z,176.47
2022-12-14T10:33:33.788Z,176.47
2022-12-14T10:34:33.780Z,176.47
2022-12-14T10:35:33.786Z,176.47
2022-12-14T10:36:33.788Z,176.47
2022-12-14T10:37:33.789Z,176.47
2022-12-14T10:38:34.083Z,112.94
2022-12-14T10:39:33.788Z,121.41
2022-12-14T10:40:34.912Z,87.53
2022-12-14T10:41:34.034Z,87.53
2022-12-14T10:42:33.856Z,125.65
2022-12-14T10:43:33.787Z,128.47
2022-12-14T10:44:33.795Z,128.47
2022-12-14T10:45:42.057Z,128.47
2022-12-14T10:46:33.899Z,128.47
2022-12-14T10:47:33.794Z,128.47
2022-12-14T10:48:33.952Z,128.47
2022-12-14T10:49:33.801Z,128.47
2022-12-14T10:50:33.782Z,128.47
2022-12-14T10:51:33.788Z,128.47
2022-12-14T10:52:33.791Z,128.47
2022-12-14T10:53:38.814Z,128.47
2022-12-14T10:54:33.798Z,100.24
2022-12-14T10:55:33.806Z,120
2022-12-14T10:56:33.907Z,118.59
2022-12-14T10:57:33.810Z,107.29
2022-12-14T10:58:33.885Z,107.29
2022-12-14T10:59:39.489Z,108.71
2022-12-14T11:00:33.812Z,108.71
2022-12-14T11:01:33.897Z,108.71
2022-12-14T11:02:33.949Z,108.71
2022-12-14T11:03:33.862Z,108.71
2022-12-14T11:04:33.929Z,159.53
2022-12-14T11:05:36.561Z,204.71
2022-12-14T11:06:33.805Z,144
2022-12-14T11:07:33.801Z,139.76
2022-12-14T11:08:33.803Z,105.88
2022-12-14T11:09:33.813Z,105.88
2022-12-14T11:10:33.812Z,105.88
2022-12-14T11:11:33.880Z,105.88
2022-12-14T11:12:33.810Z,105.88
2022-12-14T11:13:33.819Z,105.88
2022-12-14T11:14:33.821Z,170.82
2022-12-14T11:15:33.814Z,173.65
2022-12-14T11:16:36.252Z,173.65
2022-12-14T11:17:33.935Z,173.65
2022-12-14T11:18:34.049Z,173.65
2022-12-14T11:19:33.820Z,173.65
2022-12-14T11:20:33.818Z,173.65
2022-12-14T11:21:33.819Z,173.65
2022-12-14T11:22:33.812Z,173.65
2022-12-14T11:23:33.812Z,173.65
2022-12-14T11:24:33.836Z,173.65
2022-12-14T11:25:33.823Z,173.65
2022-12-14T11:26:33.822Z,256.94
2022-12-14T11:27:33.831Z,275.29
2022-12-14T11:28:37.324Z,275.29
2022-12-14T11:29:33.835Z,275.29
2022-12-14T11:30:33.910Z,275.29
2022-12-14T11:31:33.837Z,275.29
2022-12-14T11:32:33.827Z,275.29
2022-12-14T11:33:33.837Z,156.71
2022-12-14T11:34:33.827Z,170.82
2022-12-14T11:35:33.833Z,203.29
2022-12-14T11:36:33.834Z,148.24
2022-12-14T11:37:33.822Z,176.47
2022-12-14T11:38:33.824Z,160.94
2022-12-14T11:39:33.836Z,162.35
2022-12-14T11:40:33.842Z,156.71
2022-12-14T11:41:33.841Z,151.06
2022-12-14T11:42:33.841Z,135.53
2022-12-14T11:43:33.838Z,149.65
2022-12-14T11:44:33.837Z,131.29
2022-12-14T11:45:33.901Z,138.35
2022-12-14T11:46:33.913Z,149.65
2022-12-14T11:47:33.847Z,152.47
2022-12-14T11:48:34.014Z,135.53
2022-12-14T11:49:33.845Z,148.24
2022-12-14T11:50:33.846Z,155.29
2022-12-14T11:51:33.863Z,159.53
2022-12-14T11:52:33.844Z,142.59
2022-12-14T11:53:33.840Z,149.65
2022-12-14T11:54:33.859Z,149.65
2022-12-14T11:55:33.895Z,135.53
2022-12-14T11:56:33.852Z,129.88
2022-12-14T11:57:33.857Z,129.88
2022-12-14T11:58:34.234Z,129.88
2022-12-14T11:59:33.852Z,129.88
2022-12-14T12:00:33.847Z,129.88
2022-12-14T12:01:33.876Z,144
2022-12-14T12:02:33.891Z,148.24
2022-12-14T12:03:33.895Z,156.71
2022-12-14T12:04:33.838Z,118.59
2022-12-14T12:05:33.969Z,144
2022-12-14T12:06:33.851Z,170.82
2022-12-14T12:07:33.875Z,87.53
2022-12-14T12:08:34.227Z,87.53
2022-12-14T12:09:33.849Z,107.29
2022-12-14T12:10:33.856Z,83.29
2022-12-14T12:11:33.842Z,101.65
2022-12-14T12:12:33.859Z,83.29
2022-12-14T12:13:33.854Z,67.76
2022-12-14T12:14:33.860Z,67.76
2022-12-14T12:15:33.963Z,67.76
2022-12-14T12:16:33.890Z,87.53
2022-12-14T12:17:33.858Z,77.65
2022-12-14T12:18:34.241Z,77.65
2022-12-14T12:19:33.856Z,77.65
2022-12-14T12:20:33.858Z,77.65
2022-12-14T12:21:33.866Z,77.65
2022-12-14T12:22:33.853Z,77.65
2022-12-14T12:23:33.920Z,77.65
2022-12-14T12:24:33.863Z,77.65
2022-12-14T12:25:37.140Z,77.65
2022-12-14T12:26:33.862Z,77.65
2022-12-14T12:27:33.849Z,77.65
2022-12-14T12:28:33.958Z,77.65
2022-12-14T12:29:33.859Z,77.65
2022-12-14T12:30:33.854Z,77.65
2022-12-14T12:31:33.930Z,77.65
2022-12-14T12:32:33.862Z,77.65
2022-12-14T12:33:33.859Z,77.65
2022-12-14T12:34:33.870Z,77.65
2022-12-14T12:35:33.862Z,264
2022-12-14T12:36:33.865Z,256.94
2022-12-14T12:37:33.863Z,256.94
2022-12-14T12:38:33.877Z,256.94